Startpagina
METAR-TAF:

METAR-TAF

Vliegvelden :

Aéroport Sud de France Perpignan

Perpignan, Frankrijk

breedte: 42-44N, lengte: 002-52E, hoogte: 43 m

Actueel weer

Dit bericht is 36 minuten geleden gemaakt, om 20:30 UTC
Wind 11 kt uit het westen
Temperatuur 15°C
Vochtigheid 51%
Druk 1030 hPa
Zicht 10 km of meer
geen wolken onder 1500 m en geen cumulonimbus

METAR: LFMP 232030Z AUTO 27011KT CAVOK 15/05 Q1030 NOSIG

Tijdstip: 22:06 (21:06 UTC)

Verwachting

Dit bericht is 7 uur en het 6 minuten geleden gemaakt, om 14:00 UTC
Verwachting geldig van 23 om 15 UTC tot 24 om 15 UTC
Wind 4 kt uit variabele richting
Zicht 10 km of meer
geen wolken onder 1500 m en geen cumulonimbus
Tijdelijke
van 23 om 15 UTC tot 23 om 20 UTC
Wind 10 kt uit het westnoordwesten

TAF: LFMP 231400Z 2315/2415 VRB04KT CAVOK TEMPO 2315/2320 30010KT

Waarnemingen en weersverwachtingen van meer dan 4000 vliegvelden (METAR en TAF).

De beschikbare stations zijn de gele en rode punten op de kaart.

Ga met uw muis naar het station om de naam te zien.

Klik dan om waarnemingen en weersverwachtingen te zien.

kaart wijzigen: klik op de groene knoppen met een zwart kruis om in te zoomen, op de groene knop met een streepje om uit te zoomen of op de groene pijlen voor aangrenzende kaarten.


METAR-TAF: